createdAt,value
2019-05-21T00:00:40.002Z,18.70
2019-05-21T00:03:13.439Z,19.62
2019-05-21T00:05:46.870Z,18.00
2019-05-21T00:08:20.414Z,20.30
2019-05-21T00:10:53.710Z,22.27
2019-05-21T00:13:27.046Z,19.98
2019-05-21T00:16:00.380Z,20.08
2019-05-21T00:18:33.740Z,18.15
2019-05-21T00:21:07.081Z,18.95
2019-05-21T00:23:40.409Z,17.67
2019-05-21T00:26:13.782Z,19.57
2019-05-21T00:29:23.949Z,19.27
2019-05-21T00:32:35.016Z,17.35
2019-05-21T00:35:44.783Z,16.40
2019-05-21T00:38:54.942Z,18.70
2019-05-21T00:42:00.108Z,14.87
2019-05-21T00:44:41.140Z,14.53
2019-05-21T00:47:14.533Z,15.80
2019-05-21T00:49:47.841Z,13.70
2019-05-21T00:52:21.182Z,13.95
2019-05-21T00:54:54.523Z,11.88
2019-05-21T00:57:29.401Z,14.13
2019-05-21T01:00:04.242Z,12.40
2019-05-21T01:02:37.685Z,11.75
2019-05-21T01:05:10.997Z,10.98
2019-05-21T01:07:44.330Z,11.57
2019-05-21T01:10:17.668Z,11.70
2019-05-21T01:12:51.014Z,12.23
2019-05-21T01:15:24.320Z,12.37
2019-05-21T01:17:57.684Z,13.48
2019-05-21T01:20:30.986Z,13.20
2019-05-21T01:23:04.347Z,15.43
2019-05-21T01:25:37.669Z,14.80
2019-05-21T01:28:11.007Z,14.78
2019-05-21T01:30:44.312Z,12.90
2019-05-21T01:33:18.633Z,14.83
2019-05-21T01:35:52.615Z,12.90
2019-05-21T01:38:25.960Z,16.10
2019-05-21T01:40:59.269Z,12.93
2019-05-21T01:43:32.609Z,18.52
2019-05-21T01:46:05.925Z,15.75
2019-05-21T01:48:39.273Z,16.95
2019-05-21T01:51:12.611Z,17.15
2019-05-21T01:53:45.831Z,18.82
2019-05-21T01:56:19.142Z,20.15
2019-05-21T01:58:52.305Z,19.45
2019-05-21T02:01:25.625Z,21.37
2019-05-21T02:03:59.008Z,19.55
2019-05-21T02:06:33.408Z,20.08
2019-05-21T02:09:07.361Z,20.97
2019-05-21T02:11:40.676Z,19.75
2019-05-21T02:14:14.012Z,20.57
2019-05-21T02:16:47.347Z,23.07
2019-05-21T02:19:20.691Z,25.03
2019-05-21T02:21:54.001Z,22.87
2019-05-21T02:24:27.345Z,25.27
2019-05-21T02:27:00.684Z,23.00
2019-05-21T02:29:34.053Z,21.55
2019-05-21T02:32:07.450Z,21.07
2019-05-21T02:34:40.795Z,22.00
2019-05-21T02:37:14.880Z,22.77
2019-05-21T02:39:48.239Z,20.80
2019-05-21T02:42:21.731Z,20.27
2019-05-21T02:44:55.068Z,21.57
2019-05-21T02:47:28.923Z,18.60
2019-05-21T02:50:03.129Z,18.25
2019-05-21T02:52:36.449Z,20.55
2019-05-21T02:55:09.830Z,21.90
2019-05-21T02:57:43.153Z,19.17
2019-05-21T03:00:17.136Z,19.67
2019-05-21T03:02:50.447Z,20.65
2019-05-21T03:05:23.811Z,20.85
2019-05-21T03:07:57.139Z,18.05
2019-05-21T03:10:30.496Z,22.40
2019-05-21T03:13:04.976Z,17.60
2019-05-21T03:15:38.393Z,18.35
2019-05-21T03:18:11.697Z,20.27
2019-05-21T03:20:45.039Z,21.57
2019-05-21T03:23:18.364Z,18.20
2019-05-21T03:25:51.729Z,18.42
2019-05-21T03:28:25.058Z,19.30
2019-05-21T03:30:58.400Z,18.00
2019-05-21T03:33:31.742Z,18.65
2019-05-21T03:36:06.134Z,17.17
2019-05-21T03:38:39.625Z,17.40
2019-05-21T03:41:12.999Z,18.73
2019-05-21T03:43:46.313Z,18.27
2019-05-21T03:46:19.676Z,17.60
2019-05-21T03:48:52.981Z,17.05
2019-05-21T03:51:26.321Z,16.60
2019-05-21T03:54:00.703Z,18.70
2019-05-21T03:56:34.011Z,17.25
2019-05-21T03:59:07.345Z,19.42
2019-05-21T04:01:40.802Z,16.15
2019-05-21T04:04:14.118Z,14.65
2019-05-21T04:06:51.800Z,13.40
2019-05-21T04:09:22.528Z,15.15
2019-05-21T04:11:55.831Z,13.95
2019-05-21T04:14:29.348Z,15.32
2019-05-21T04:17:02.670Z,12.68
2019-05-21T04:19:36.021Z,12.28
2019-05-21T04:22:12.647Z,13.53
2019-05-21T04:24:45.996Z,11.40
2019-05-21T04:27:20.937Z,12.50
2019-05-21T04:29:54.494Z,13.30
2019-05-21T04:32:27.812Z,13.53
2019-05-21T04:35:01.142Z,12.70
2019-05-21T04:37:34.470Z,15.10
2019-05-21T04:40:07.956Z,12.15
2019-05-21T04:42:41.291Z,13.32
2019-05-21T04:45:14.594Z,10.80
2019-05-21T04:47:48.168Z,15.58
2019-05-21T04:50:22.591Z,10.63
2019-05-21T04:52:55.785Z,12.85
2019-05-21T04:55:29.177Z,12.55
2019-05-21T04:58:02.676Z,12.25
2019-05-21T05:00:37.589Z,11.05
2019-05-21T05:03:10.901Z,13.65
2019-05-21T05:05:44.404Z,12.07
2019-05-21T05:08:17.745Z,12.18
2019-05-21T05:10:51.085Z,12.15
2019-05-21T05:13:24.401Z,12.90
2019-05-21T05:15:57.765Z,11.00
2019-05-21T05:18:31.216Z,12.18
2019-05-21T05:21:04.669Z,10.85
2019-05-21T05:23:38.004Z,11.08
2019-05-21T05:26:11.316Z,8.95
2019-05-21T05:28:44.712Z,16.50
2019-05-21T05:31:18.067Z,10.63
2019-05-21T05:33:52.475Z,12.25
2019-05-21T05:36:25.835Z,11.18
2019-05-21T05:38:59.128Z,11.55
2019-05-21T05:41:32.505Z,13.45
2019-05-21T05:44:05.823Z,10.25
2019-05-21T05:46:39.228Z,13.32
2019-05-21T05:49:12.739Z,13.05
2019-05-21T05:51:46.275Z,12.98
2019-05-21T05:54:19.618Z,11.97
2019-05-21T05:56:53.035Z,15.33
2019-05-21T05:59:26.432Z,13.43
2019-05-21T06:02:00.837Z,15.80
2019-05-21T06:04:34.144Z,14.35
2019-05-21T06:07:07.323Z,16.12
2019-05-21T06:09:40.630Z,12.20
2019-05-21T06:12:14.172Z,12.37
2019-05-21T06:14:47.563Z,18.12
2019-05-21T06:17:20.983Z,10.08
2019-05-21T06:19:55.377Z,12.85
2019-05-21T06:22:28.773Z,18.60
2019-05-21T06:25:02.258Z,12.58
2019-05-21T06:27:35.752Z,12.10
2019-05-21T06:30:09.075Z,20.00
2019-05-21T06:32:42.389Z,10.37
2019-05-21T06:35:15.690Z,12.53
2019-05-21T06:37:49.121Z,9.35
2019-05-21T06:40:22.688Z,6.53
2019-05-21T06:42:56.020Z,12.28
2019-05-21T06:45:30.432Z,9.05
2019-05-21T06:48:03.720Z,9.65
2019-05-21T06:50:37.716Z,10.00
2019-05-21T06:53:11.294Z,8.85
2019-05-21T06:55:44.681Z,10.88
2019-05-21T06:58:18.008Z,11.53
2019-05-21T07:00:51.340Z,8.05
2019-05-21T07:03:24.678Z,9.63
2019-05-21T07:05:59.434Z,7.92
2019-05-21T07:08:35.335Z,8.83
2019-05-21T07:11:10.395Z,9.85
2019-05-21T07:13:43.843Z,9.78
2019-05-21T07:16:17.173Z,6.28
2019-05-21T07:18:50.474Z,10.10
2019-05-21T07:21:23.831Z,6.20
2019-05-21T07:23:57.201Z,8.58
2019-05-21T07:26:30.568Z,7.65
2019-05-21T07:29:03.889Z,7.30
2019-05-21T07:31:38.309Z,8.43
2019-05-21T07:34:11.625Z,11.05
2019-05-21T07:36:44.976Z,8.43
2019-05-21T07:39:18.306Z,9.10
2019-05-21T07:41:51.652Z,5.97
2019-05-21T07:44:25.174Z,7.42
2019-05-21T07:46:58.513Z,9.20
2019-05-21T07:49:31.833Z,7.47
2019-05-21T07:52:05.187Z,8.08
2019-05-21T07:54:38.481Z,8.18
2019-05-21T07:57:11.827Z,7.33
2019-05-21T07:59:45.129Z,8.03
2019-05-21T08:02:18.498Z,7.50
2019-05-21T08:04:52.908Z,9.63
2019-05-21T08:07:26.256Z,7.05
2019-05-21T08:09:59.576Z,9.25
2019-05-21T08:12:38.749Z,7.12
2019-05-21T08:15:07.984Z,10.40
2019-05-21T08:17:41.357Z,10.90
2019-05-21T08:20:16.313Z,10.63
2019-05-21T08:22:49.710Z,10.18
2019-05-21T08:25:23.037Z,8.40
2019-05-21T08:27:56.206Z,8.58
2019-05-21T08:30:29.514Z,12.93
2019-05-21T08:33:02.878Z,10.03
2019-05-21T08:35:36.271Z,13.72
2019-05-21T08:38:09.628Z,11.65
2019-05-21T08:40:42.942Z,10.15
2019-05-21T08:43:16.286Z,8.65
2019-05-21T08:45:49.594Z,9.05
2019-05-21T08:48:23.572Z,10.58
2019-05-21T08:50:56.862Z,9.20
2019-05-21T08:53:30.243Z,10.43
2019-05-21T08:56:03.526Z,12.50
2019-05-21T08:58:36.855Z,10.63
2019-05-21T09:01:10.274Z,9.25
2019-05-21T09:03:43.658Z,9.15
2019-05-21T09:06:16.955Z,10.65
2019-05-21T09:08:50.278Z,9.20
2019-05-21T09:11:23.733Z,9.45
2019-05-21T09:13:57.110Z,7.72
2019-05-21T09:16:30.792Z,8.60
2019-05-21T09:19:04.215Z,10.08
2019-05-21T09:21:37.531Z,9.33
2019-05-21T09:24:10.896Z,8.65
2019-05-21T09:26:44.242Z,11.10
2019-05-21T09:29:17.589Z,9.30
2019-05-21T09:31:50.979Z,9.90
2019-05-21T09:34:24.326Z,9.48
2019-05-21T09:36:57.687Z,7.67
2019-05-21T09:39:31.214Z,8.48
2019-05-21T09:42:04.545Z,7.40
2019-05-21T09:44:37.897Z,9.90
2019-05-21T09:47:11.199Z,8.35
2019-05-21T09:49:44.574Z,7.60
2019-05-21T09:52:17.883Z,7.62
2019-05-21T09:54:51.445Z,8.50
2019-05-21T09:57:24.759Z,8.08
2019-05-21T09:59:58.090Z,7.67
2019-05-21T10:02:33.004Z,6.10
2019-05-21T10:05:06.376Z,7.95
2019-05-21T10:07:40.773Z,6.40
2019-05-21T10:10:14.342Z,7.40
2019-05-21T10:12:47.664Z,5.90
2019-05-21T10:15:21.026Z,5.67
2019-05-21T10:17:54.592Z,6.22
2019-05-21T10:20:27.790Z,8.60
2019-05-21T10:23:01.431Z,6.47
2019-05-21T10:25:35.005Z,5.85
2019-05-21T10:28:08.310Z,6.67
2019-05-21T10:30:41.647Z,6.90
2019-05-21T10:33:14.958Z,6.70
2019-05-21T10:35:48.300Z,6.33
2019-05-21T10:38:21.619Z,5.80
2019-05-21T10:40:54.949Z,6.85
2019-05-21T10:43:28.315Z,5.87
2019-05-21T10:46:01.678Z,6.08
2019-05-21T10:48:36.163Z,5.33
2019-05-21T10:51:09.802Z,5.17
2019-05-21T10:53:43.273Z,5.83
2019-05-21T10:56:16.637Z,5.10
2019-05-21T10:58:49.958Z,5.75
2019-05-21T11:01:23.305Z,5.53
2019-05-21T11:03:56.699Z,4.90
2019-05-21T11:06:30.244Z,4.92
2019-05-21T11:09:05.715Z,5.25
2019-05-21T11:11:39.433Z,5.08
2019-05-21T11:14:13.036Z,6.00
2019-05-21T11:16:46.389Z,3.87
2019-05-21T11:19:19.701Z,4.65
2019-05-21T11:21:53.047Z,4.22
2019-05-21T11:24:26.336Z,3.95
2019-05-21T11:27:04.614Z,4.67
2019-05-21T11:29:37.896Z,4.00
2019-05-21T11:32:11.220Z,4.55
2019-05-21T11:34:44.517Z,5.22
2019-05-21T11:37:17.943Z,5.55
2019-05-21T11:39:51.306Z,5.47
2019-05-21T11:42:24.683Z,5.87
2019-05-21T11:44:58.021Z,5.97
2019-05-21T11:47:31.314Z,5.78
2019-05-21T11:50:07.853Z,4.97
2019-05-21T11:52:41.165Z,5.28
2019-05-21T11:55:14.494Z,6.80
2019-05-21T11:57:47.797Z,4.55
2019-05-21T12:00:21.825Z,4.12
2019-05-21T12:02:55.249Z,4.83
2019-05-21T12:05:28.561Z,5.25
2019-05-21T12:08:01.861Z,5.08
2019-05-21T12:10:35.210Z,7.08
2019-05-21T12:13:08.606Z,5.28
2019-05-21T12:15:41.988Z,5.95
2019-05-21T12:18:16.382Z,7.58
2019-05-21T12:20:49.725Z,5.12
2019-05-21T12:23:23.031Z,4.78
2019-05-21T12:25:56.360Z,6.22
2019-05-21T12:28:29.687Z,4.40
2019-05-21T12:31:03.038Z,5.97
2019-05-21T12:33:36.389Z,4.87
2019-05-21T12:36:09.746Z,4.80
2019-05-21T12:38:43.059Z,5.25
2019-05-21T12:41:16.386Z,5.17
2019-05-21T12:43:49.685Z,5.67
2019-05-21T12:46:23.050Z,5.42
2019-05-21T12:48:56.576Z,6.08
2019-05-21T12:51:29.912Z,7.40
2019-05-21T12:54:03.249Z,5.75
2019-05-21T12:56:40.446Z,6.90
2019-05-21T12:59:11.669Z,8.98
2019-05-21T13:01:45.403Z,7.58
2019-05-21T13:04:18.730Z,8.03
2019-05-21T13:06:52.121Z,6.22
2019-05-21T13:09:32.738Z,5.65
2019-05-21T13:12:00.561Z,8.80
2019-05-21T13:14:33.948Z,5.33
2019-05-21T13:17:07.496Z,5.62
2019-05-21T13:19:41.043Z,7.72
2019-05-21T13:22:14.408Z,6.08
2019-05-21T13:24:47.820Z,4.92
2019-05-21T13:27:21.347Z,10.08
2019-05-21T13:29:54.704Z,4.20
2019-05-21T13:32:29.106Z,5.62
2019-05-21T13:35:03.390Z,5.35
2019-05-21T13:37:37.248Z,4.03
2019-05-21T13:40:10.586Z,6.30
2019-05-21T13:42:44.078Z,4.22
2019-05-21T13:45:18.293Z,4.87
2019-05-21T13:47:51.687Z,4.75
2019-05-21T13:50:26.027Z,4.78
2019-05-21T13:53:01.021Z,6.55
2019-05-21T13:55:34.364Z,5.37
2019-05-21T13:58:07.813Z,5.47
2019-05-21T14:00:41.162Z,4.70
2019-05-21T14:03:14.582Z,4.00
2019-05-21T14:05:47.909Z,6.40
2019-05-21T14:08:21.238Z,5.17
2019-05-21T14:10:55.633Z,4.45
2019-05-21T14:13:28.954Z,3.62
2019-05-21T14:16:02.614Z,4.95
2019-05-21T14:18:36.316Z,5.72
2019-05-21T14:21:09.672Z,4.35
2019-05-21T14:23:42.895Z,5.22
2019-05-21T14:26:16.291Z,7.80
2019-05-21T14:28:49.624Z,7.15
2019-05-21T14:31:22.972Z,5.87
2019-05-21T14:33:56.267Z,6.60
2019-05-21T14:36:29.607Z,6.10
2019-05-21T14:39:06.484Z,6.55
2019-05-21T14:41:40.013Z,5.45
2019-05-21T14:44:13.332Z,6.55
2019-05-21T14:46:46.685Z,4.28
2019-05-21T14:49:20.077Z,7.67
2019-05-21T14:51:55.030Z,5.35
2019-05-21T14:54:28.359Z,5.30
2019-05-21T14:57:01.714Z,4.67
2019-05-21T14:59:34.991Z,6.70
2019-05-21T15:02:08.671Z,8.23
2019-05-21T15:04:42.268Z,8.08
2019-05-21T15:07:16.376Z,4.97
2019-05-21T15:09:53.333Z,8.45
2019-05-21T15:12:24.770Z,6.70
2019-05-21T15:14:58.069Z,10.95
2019-05-21T15:17:31.420Z,7.45
2019-05-21T15:20:07.283Z,8.50
2019-05-21T15:22:40.603Z,7.20
2019-05-21T15:25:13.910Z,5.87
2019-05-21T15:27:47.294Z,5.12
2019-05-21T15:30:20.559Z,9.05
2019-05-21T15:32:54.074Z,7.60
2019-05-21T15:35:27.396Z,6.60
2019-05-21T15:38:01.509Z,8.53
2019-05-21T15:40:34.923Z,5.15
2019-05-21T15:43:08.293Z,5.62
2019-05-21T15:45:41.576Z,9.30
2019-05-21T15:48:14.926Z,6.05
2019-05-21T15:50:48.231Z,6.60
2019-05-21T15:53:21.602Z,7.17
2019-05-21T15:55:56.490Z,9.35
2019-05-21T15:58:29.823Z,6.55
2019-05-21T16:01:03.134Z,8.80
2019-05-21T16:03:36.474Z,9.03
2019-05-21T16:06:09.795Z,6.80
2019-05-21T16:08:43.164Z,11.63
2019-05-21T16:11:28.056Z,6.33
2019-05-21T16:13:51.471Z,6.22
2019-05-21T16:16:24.802Z,7.35
2019-05-21T16:18:58.251Z,8.65
2019-05-21T16:21:31.613Z,8.03
2019-05-21T16:24:04.944Z,13.93
2019-05-21T16:26:38.315Z,12.25
2019-05-21T16:29:11.626Z,10.03
2019-05-21T16:31:44.984Z,8.40
2019-05-21T16:34:18.472Z,7.85
2019-05-21T16:36:52.213Z,8.60
2019-05-21T16:39:25.341Z,7.08
2019-05-21T16:41:58.864Z,8.50
2019-05-21T16:44:32.252Z,8.78
2019-05-21T16:47:05.712Z,7.83
2019-05-21T16:49:39.044Z,13.40
2019-05-21T16:52:12.741Z,18.07
2019-05-21T16:54:46.146Z,18.70
2019-05-21T16:57:19.559Z,19.30
2019-05-21T16:59:52.932Z,18.90
2019-05-21T17:02:26.288Z,26.90
2019-05-21T17:04:59.623Z,22.50
2019-05-21T17:07:33.552Z,22.87
2019-05-21T17:10:06.942Z,22.17
2019-05-21T17:12:40.287Z,24.02
2019-05-21T17:15:13.620Z,19.82
2019-05-21T17:17:46.964Z,22.13
2019-05-21T17:20:20.285Z,20.62
2019-05-21T17:22:53.632Z,20.75
2019-05-21T17:25:27.118Z,16.45
2019-05-21T17:28:00.502Z,17.73
2019-05-21T17:30:35.017Z,13.40
2019-05-21T17:33:08.438Z,15.53
2019-05-21T17:35:41.755Z,17.05
2019-05-21T17:38:15.186Z,13.90
2019-05-21T17:40:48.520Z,12.53
2019-05-21T17:43:21.914Z,15.83
2019-05-21T17:45:55.320Z,11.63
2019-05-21T17:48:28.782Z,12.20
2019-05-21T17:51:02.107Z,12.98
2019-05-21T17:53:35.525Z,16.93
2019-05-21T17:56:08.859Z,16.35
2019-05-21T17:58:43.824Z,8.48
2019-05-21T18:01:17.216Z,13.75
2019-05-21T18:03:50.605Z,11.65
2019-05-21T18:06:23.917Z,12.53
2019-05-21T18:08:57.354Z,9.98
2019-05-21T18:11:30.670Z,9.00
2019-05-21T18:14:04.011Z,13.15
2019-05-21T18:16:37.878Z,8.43
2019-05-21T18:19:11.516Z,12.60
2019-05-21T18:21:44.932Z,12.03
2019-05-21T18:24:18.265Z,11.75
2019-05-21T18:26:51.622Z,8.65
2019-05-21T18:29:26.024Z,8.65
2019-05-21T18:31:59.372Z,8.25
2019-05-21T18:34:32.774Z,12.37
2019-05-21T18:37:06.240Z,8.30
2019-05-21T18:39:42.332Z,7.30
2019-05-21T18:42:22.267Z,8.45
2019-05-21T18:44:50.798Z,9.98
2019-05-21T18:47:24.120Z,8.93
2019-05-21T18:49:57.436Z,8.43
2019-05-21T18:52:30.769Z,9.60
2019-05-21T18:55:05.639Z,8.65
2019-05-21T18:57:39.050Z,8.25
2019-05-21T19:00:12.716Z,9.00
2019-05-21T19:02:46.082Z,10.28
2019-05-21T19:05:19.489Z,13.03
2019-05-21T19:07:53.155Z,8.35
2019-05-21T19:10:26.685Z,7.30
2019-05-21T19:13:02.935Z,11.25
2019-05-21T19:15:36.478Z,8.65
2019-05-21T19:18:09.809Z,9.93
2019-05-21T19:20:43.115Z,10.55
2019-05-21T19:23:16.535Z,8.03
2019-05-21T19:25:49.901Z,13.28
2019-05-21T19:28:23.252Z,9.90
2019-05-21T19:30:56.557Z,7.37
2019-05-21T19:33:29.892Z,10.45
2019-05-21T19:36:03.208Z,8.35
2019-05-21T19:38:37.345Z,7.35
2019-05-21T19:41:10.805Z,9.43
2019-05-21T19:43:44.349Z,8.35
2019-05-21T19:46:17.650Z,9.73
2019-05-21T19:48:51.017Z,12.10
2019-05-21T19:51:24.345Z,10.93
2019-05-21T19:53:57.628Z,9.60
2019-05-21T19:56:31.071Z,7.08
2019-05-21T19:59:04.617Z,9.28
2019-05-21T20:01:38.413Z,9.80
2019-05-21T20:04:11.725Z,10.85
2019-05-21T20:06:45.151Z,11.33
2019-05-21T20:09:18.520Z,8.58
2019-05-21T20:11:52.090Z,12.15
2019-05-21T20:14:25.406Z,10.05
2019-05-21T20:16:58.918Z,9.13
2019-05-21T20:19:32.369Z,11.18
2019-05-21T20:22:05.709Z,10.65
2019-05-21T20:24:39.993Z,12.63
2019-05-21T20:27:13.414Z,11.50
2019-05-21T20:29:47.066Z,11.35
2019-05-21T20:32:20.401Z,15.28
2019-05-21T20:34:53.698Z,11.85
2019-05-21T20:37:27.331Z,12.95
2019-05-21T20:40:01.776Z,9.33
2019-05-21T20:42:36.137Z,11.20
2019-05-21T20:45:09.894Z,12.55
2019-05-21T20:47:43.229Z,10.60
2019-05-21T20:50:16.531Z,8.60
2019-05-21T20:52:49.911Z,11.50
2019-05-21T20:55:23.240Z,8.75
2019-05-21T20:57:56.847Z,9.13
2019-05-21T21:00:30.348Z,9.30
2019-05-21T21:03:03.744Z,12.07
2019-05-21T21:05:37.066Z,8.63
2019-05-21T21:08:10.776Z,7.53
2019-05-21T21:10:44.158Z,8.08
2019-05-21T21:13:17.490Z,7.25
2019-05-21T21:15:50.863Z,19.00
2019-05-21T21:18:25.925Z,8.55
2019-05-21T21:20:59.239Z,9.33
2019-05-21T21:23:32.592Z,8.77
2019-05-21T21:26:05.891Z,8.68
2019-05-21T21:28:39.426Z,8.10
2019-05-21T21:31:12.727Z,7.95
2019-05-21T21:33:46.079Z,9.63
2019-05-21T21:36:19.380Z,7.33
2019-05-21T21:38:52.984Z,7.97
2019-05-21T21:41:26.465Z,7.53
2019-05-21T21:44:00.443Z,10.10
2019-05-21T21:46:33.782Z,8.68
2019-05-21T21:49:07.113Z,8.38
2019-05-21T21:51:40.448Z,9.05
2019-05-21T21:54:14.818Z,8.80
2019-05-21T21:56:48.342Z,9.48
2019-05-21T21:59:21.646Z,7.33
2019-05-21T22:02:07.434Z,8.63
2019-05-21T22:04:40.908Z,7.40
2019-05-21T22:07:14.209Z,9.18
2019-05-21T22:09:47.610Z,9.23
2019-05-21T22:12:20.924Z,8.43
2019-05-21T22:14:56.502Z,7.87
2019-05-21T22:17:29.839Z,7.83
2019-05-21T22:20:05.751Z,9.38
2019-05-21T22:22:39.063Z,7.25
2019-05-21T22:25:12.421Z,7.15
2019-05-21T22:27:45.733Z,8.63
2019-05-21T22:30:19.082Z,6.20
2019-05-21T22:32:53.471Z,8.00
2019-05-21T22:35:26.809Z,7.15
2019-05-21T22:38:00.117Z,8.05
2019-05-21T22:40:33.436Z,6.42
2019-05-21T22:43:06.773Z,8.25
2019-05-21T22:45:40.154Z,7.03
2019-05-21T22:48:13.480Z,6.92
2019-05-21T22:50:46.821Z,7.28
2019-05-21T22:53:20.164Z,6.22
2019-05-21T22:55:53.514Z,6.55
2019-05-21T22:58:26.814Z,6.28
2019-05-21T23:01:01.761Z,7.95
2019-05-21T23:03:35.066Z,7.08
2019-05-21T23:06:08.387Z,7.60
2019-05-21T23:08:41.725Z,6.15
2019-05-21T23:11:15.063Z,9.13
2019-05-21T23:13:48.540Z,5.78
2019-05-21T23:16:22.348Z,6.10
2019-05-21T23:19:13.873Z,8.33
2019-05-21T23:21:48.833Z,7.83
2019-05-21T23:24:22.145Z,7.55
2019-05-21T23:26:55.501Z,7.10
2019-05-21T23:29:29.979Z,5.85
2019-05-21T23:32:03.341Z,7.10
2019-05-21T23:34:36.654Z,6.72
2019-05-21T23:37:11.152Z,7.47
2019-05-21T23:39:44.677Z,6.25
2019-05-21T23:42:28.941Z,6.35
2019-05-21T23:44:53.157Z,8.05
2019-05-21T23:47:26.562Z,7.37
2019-05-21T23:49:59.885Z,6.65
2019-05-21T23:52:37.023Z,8.08
2019-05-21T23:55:10.408Z,5.90
2019-05-21T23:57:44.153Z,6.08
